sensor_id;sensor_type;location;lat;lon;timestamp;noise_LAeq;noise_LA_min;noise_LA_max;noise_LA01;noise_LA95
77133;Laerm;26708;50.304;19.028;2023-12-20T00:00:52;53.76;51.09;61.01;;
77133;Laerm;26708;50.304;19.028;2023-12-20T00:02:59;53.75;50.84;59.23;;
77133;Laerm;26708;50.304;19.028;2023-12-20T00:05:06;53.85;51.40;56.61;;
77133;Laerm;26708;50.304;19.028;2023-12-20T00:07:13;54.26;51.80;57.15;;
77133;Laerm;26708;50.304;19.028;2023-12-20T00:09:25;54.15;51.45;57.48;;
77133;Laerm;26708;50.304;19.028;2023-12-20T00:11:27;53.85;51.22;57.92;;
77133;Laerm;26708;50.304;19.028;2023-12-20T00:13:35;53.68;50.83;58.54;;
77133;Laerm;26708;50.304;19.028;2023-12-20T00:15:45;56.30;51.15;72.03;;
77133;Laerm;26708;50.304;19.028;2023-12-20T00:17:50;53.84;51.23;62.24;;
77133;Laerm;26708;50.304;19.028;2023-12-20T00:19:54;53.78;51.00;57.83;;
77133;Laerm;26708;50.304;19.028;2023-12-20T00:22:00;53.72;50.89;58.19;;
77133;Laerm;26708;50.304;19.028;2023-12-20T00:24:05;53.62;50.22;58.43;;
77133;Laerm;26708;50.304;19.028;2023-12-20T00:26:12;53.50;50.76;58.74;;
77133;Laerm;26708;50.304;19.028;2023-12-20T00:28:18;53.49;50.89;58.71;;
77133;Laerm;26708;50.304;19.028;2023-12-20T00:30:22;53.56;50.87;58.82;;
77133;Laerm;26708;50.304;19.028;2023-12-20T00:32:27;53.37;50.64;56.08;;
77133;Laerm;26708;50.304;19.028;2023-12-20T00:34:35;53.41;50.41;56.20;;
77133;Laerm;26708;50.304;19.028;2023-12-20T00:36:39;53.45;50.63;62.39;;
77133;Laerm;26708;50.304;19.028;2023-12-20T00:38:44;53.59;51.04;56.23;;
77133;Laerm;26708;50.304;19.028;2023-12-20T00:40:49;53.39;50.63;56.45;;
77133;Laerm;26708;50.304;19.028;2023-12-20T00:42:57;53.40;50.37;57.85;;
77133;Laerm;26708;50.304;19.028;2023-12-20T00:45:01;53.34;49.94;56.74;;
77133;Laerm;26708;50.304;19.028;2023-12-20T00:47:07;53.47;50.39;56.71;;
77133;Laerm;26708;50.304;19.028;2023-12-20T00:49:12;53.33;50.66;58.34;;
77133;Laerm;26708;50.304;19.028;2023-12-20T00:51:17;53.37;50.74;55.82;;
77133;Laerm;26708;50.304;19.028;2023-12-20T00:53:24;53.45;50.34;58.26;;
77133;Laerm;26708;50.304;19.028;2023-12-20T00:55:26;53.38;50.49;56.15;;
77133;Laerm;26708;50.304;19.028;2023-12-20T00:57:52;53.44;50.56;56.75;;
77133;Laerm;26708;50.304;19.028;2023-12-20T01:00:07;53.46;50.84;58.49;;
77133;Laerm;26708;50.304;19.028;2023-12-20T01:02:14;53.36;50.30;56.20;;
77133;Laerm;26708;50.304;19.028;2023-12-20T01:04:16;53.34;50.50;56.31;;
77133;Laerm;26708;50.304;19.028;2023-12-20T01:06:25;53.42;50.27;60.38;;
77133;Laerm;26708;50.304;19.028;2023-12-20T01:08:31;53.33;50.66;55.84;;
77133;Laerm;26708;50.304;19.028;2023-12-20T01:10:36;55.27;50.63;70.49;;
77133;Laerm;26708;50.304;19.028;2023-12-20T01:12:46;53.93;50.62;64.19;;
77133;Laerm;26708;50.304;19.028;2023-12-20T01:14:53;55.31;50.75;70.52;;
77133;Laerm;26708;50.304;19.028;2023-12-20T01:17:01;53.41;50.63;58.49;;
77133;Laerm;26708;50.304;19.028;2023-12-20T01:19:09;54.74;51.05;67.35;;
77133;Laerm;26708;50.304;19.028;2023-12-20T01:21:13;55.09;50.34;67.78;;
77133;Laerm;26708;50.304;19.028;2023-12-20T01:23:18;53.27;50.66;56.04;;
77133;Laerm;26708;50.304;19.028;2023-12-20T01:25:21;53.29;50.58;56.03;;
77133;Laerm;26708;50.304;19.028;2023-12-20T01:27:26;53.31;50.45;55.81;;
77133;Laerm;26708;50.304;19.028;2023-12-20T01:29:33;53.20;50.33;55.83;;
77133;Laerm;26708;50.304;19.028;2023-12-20T01:31:43;53.28;50.61;55.83;;
77133;Laerm;26708;50.304;19.028;2023-12-20T01:33:51;53.20;50.59;55.68;;
77133;Laerm;26708;50.304;19.028;2023-12-20T01:35:58;53.33;50.51;56.62;;
77133;Laerm;26708;50.304;19.028;2023-12-20T01:38:04;53.31;50.29;55.88;;
77133;Laerm;26708;50.304;19.028;2023-12-20T01:40:10;53.39;50.62;56.39;;
77133;Laerm;26708;50.304;19.028;2023-12-20T01:42:16;53.42;50.71;56.34;;
77133;Laerm;26708;50.304;19.028;2023-12-20T01:44:22;53.37;50.41;55.84;;
77133;Laerm;26708;50.304;19.028;2023-12-20T01:46:28;53.37;50.74;56.35;;
77133;Laerm;26708;50.304;19.028;2023-12-20T01:48:37;53.33;50.23;56.10;;
77133;Laerm;26708;50.304;19.028;2023-12-20T01:50:51;53.29;50.55;56.05;;
77133;Laerm;26708;50.304;19.028;2023-12-20T01:53:01;53.38;50.81;56.37;;
77133;Laerm;26708;50.304;19.028;2023-12-20T01:55:07;53.25;50.27;56.36;;
77133;Laerm;26708;50.304;19.028;2023-12-20T01:57:16;53.33;50.37;55.83;;
77133;Laerm;26708;50.304;19.028;2023-12-20T01:59:22;53.38;50.81;56.57;;
77133;Laerm;26708;50.304;19.028;2023-12-20T02:01:32;53.49;50.80;57.33;;
77133;Laerm;26708;50.304;19.028;2023-12-20T02:03:38;53.31;50.44;55.62;;
77133;Laerm;26708;50.304;19.028;2023-12-20T02:05:45;53.53;50.93;60.30;;
77133;Laerm;26708;50.304;19.028;2023-12-20T02:07:55;53.45;50.71;56.31;;
77133;Laerm;26708;50.304;19.028;2023-12-20T02:10:03;53.28;50.64;55.97;;
77133;Laerm;26708;50.304;19.028;2023-12-20T02:12:10;53.39;50.86;55.90;;
77133;Laerm;26708;50.304;19.028;2023-12-20T02:14:16;53.27;50.41;56.06;;
77133;Laerm;26708;50.304;19.028;2023-12-20T02:16:23;53.32;50.69;56.12;;
77133;Laerm;26708;50.304;19.028;2023-12-20T02:18:31;53.26;50.47;56.08;;
77133;Laerm;26708;50.304;19.028;2023-12-20T02:20:35;53.39;50.64;56.31;;
77133;Laerm;26708;50.304;19.028;2023-12-20T02:22:45;53.11;50.33;56.04;;
77133;Laerm;26708;50.304;19.028;2023-12-20T02:24:50;53.23;50.40;55.97;;
77133;Laerm;26708;50.304;19.028;2023-12-20T02:26:52;53.69;50.77;60.45;;
77133;Laerm;26708;50.304;19.028;2023-12-20T02:28:59;53.38;50.42;56.20;;
77133;Laerm;26708;50.304;19.028;2023-12-20T02:31:04;53.37;50.88;55.84;;
77133;Laerm;26708;50.304;19.028;2023-12-20T02:33:12;53.34;50.27;56.03;;
77133;Laerm;26708;50.304;19.028;2023-12-20T02:35:17;53.26;50.12;56.08;;
77133;Laerm;26708;50.304;19.028;2023-12-20T02:37:24;53.43;50.15;57.11;;
77133;Laerm;26708;50.304;19.028;2023-12-20T02:39:31;53.19;50.46;56.23;;
77133;Laerm;26708;50.304;19.028;2023-12-20T02:41:34;53.29;50.62;55.82;;
77133;Laerm;26708;50.304;19.028;2023-12-20T02:43:39;55.73;50.54;71.68;;
77133;Laerm;26708;50.304;19.028;2023-12-20T02:45:45;53.30;50.58;56.24;;
77133;Laerm;26708;50.304;19.028;2023-12-20T02:47:51;53.27;50.28;55.94;;
77133;Laerm;26708;50.304;19.028;2023-12-20T02:49:56;53.38;50.66;55.92;;
77133;Laerm;26708;50.304;19.028;2023-12-20T02:52:00;53.26;50.58;55.75;;
77133;Laerm;26708;50.304;19.028;2023-12-20T02:54:09;53.24;50.14;56.14;;
77133;Laerm;26708;50.304;19.028;2023-12-20T02:56:17;53.52;51.11;56.32;;
77133;Laerm;26708;50.304;19.028;2023-12-20T02:58:23;53.58;51.31;57.12;;
77133;Laerm;26708;50.304;19.028;2023-12-20T03:00:28;53.96;50.98;56.53;;
77133;Laerm;26708;50.304;19.028;2023-12-20T03:02:30;55.25;51.39;67.19;;
77133;Laerm;26708;50.304;19.028;2023-12-20T03:04:35;54.04;51.00;56.67;;
77133;Laerm;26708;50.304;19.028;2023-12-20T03:06:41;53.89;50.70;56.39;;
77133;Laerm;26708;50.304;19.028;2023-12-20T03:08:43;53.87;51.06;56.57;;
77133;Laerm;26708;50.304;19.028;2023-12-20T03:10:48;54.60;51.30;64.58;;
77133;Laerm;26708;50.304;19.028;2023-12-20T03:12:56;53.60;50.60;60.61;;
77133;Laerm;26708;50.304;19.028;2023-12-20T03:15:01;53.54;51.07;58.74;;
77133;Laerm;26708;50.304;19.028;2023-12-20T03:17:06;53.69;50.84;59.16;;
77133;Laerm;26708;50.304;19.028;2023-12-20T03:19:11;54.08;51.56;59.64;;
77133;Laerm;26708;50.304;19.028;2023-12-20T03:21:16;53.83;51.02;59.06;;
77133;Laerm;26708;50.304;19.028;2023-12-20T03:23:21;53.92;51.45;63.33;;
77133;Laerm;26708;50.304;19.028;2023-12-20T03:25:26;49.83;46.49;58.78;;
77133;Laerm;26708;50.304;19.028;2023-12-20T03:27:49;48.84;46.05;60.24;;
77133;Laerm;26708;50.304;19.028;2023-12-20T03:29:56;55.38;45.07;72.40;;
77133;Laerm;26708;50.304;19.028;2023-12-20T03:32:09;54.03;47.15;69.34;;
77133;Laerm;26708;50.304;19.028;2023-12-20T03:34:17;54.70;47.63;70.68;;
77133;Laerm;26708;50.304;19.028;2023-12-20T03:36:23;49.73;47.00;58.02;;
77133;Laerm;26708;50.304;19.028;2023-12-20T03:38:32;49.71;46.74;58.83;;
77133;Laerm;26708;50.304;19.028;2023-12-20T03:40:36;50.08;47.26;58.08;;
77133;Laerm;26708;50.304;19.028;2023-12-20T03:42:41;50.21;47.88;57.84;;
77133;Laerm;26708;50.304;19.028;2023-12-20T03:44:49;54.47;47.37;69.73;;
77133;Laerm;26708;50.304;19.028;2023-12-20T03:46:56;49.63;46.57;58.50;;
77133;Laerm;26708;50.304;19.028;2023-12-20T03:49:02;48.88;45.85;58.78;;
77133;Laerm;26708;50.304;19.028;2023-12-20T03:51:08;48.99;46.16;59.26;;
77133;Laerm;26708;50.304;19.028;2023-12-20T03:53:13;49.40;45.68;58.80;;
77133;Laerm;26708;50.304;19.028;2023-12-20T03:55:23;49.72;46.93;57.89;;
77133;Laerm;26708;50.304;19.028;2023-12-20T03:57:31;49.74;46.69;66.11;;
77133;Laerm;26708;50.304;19.028;2023-12-20T03:59:36;49.77;46.65;55.22;;
77133;Laerm;26708;50.304;19.028;2023-12-20T04:01:43;55.37;46.99;72.65;;
77133;Laerm;26708;50.304;19.028;2023-12-20T04:03:53;52.31;47.57;64.95;;
77133;Laerm;26708;50.304;19.028;2023-12-20T04:05:55;49.41;46.60;58.07;;
77133;Laerm;26708;50.304;19.028;2023-12-20T04:08:01;54.38;47.27;69.62;;
77133;Laerm;26708;50.304;19.028;2023-12-20T04:10:06;50.03;47.14;57.13;;
77133;Laerm;26708;50.304;19.028;2023-12-20T04:12:10;49.89;46.31;60.36;;
77133;Laerm;26708;50.304;19.028;2023-12-20T04:14:16;56.20;47.41;72.13;;
77133;Laerm;26708;50.304;19.028;2023-12-20T04:16:22;53.20;47.27;68.35;;
77133;Laerm;26708;50.304;19.028;2023-12-20T04:18:26;54.38;47.06;68.48;;
77133;Laerm;26708;50.304;19.028;2023-12-20T04:20:33;50.44;47.16;57.40;;
77133;Laerm;26708;50.304;19.028;2023-12-20T04:22:36;53.46;48.18;66.52;;
77133;Laerm;26708;50.304;19.028;2023-12-20T04:24:40;49.86;46.21;58.53;;
77133;Laerm;26708;50.304;19.028;2023-12-20T04:26:46;49.87;46.67;60.45;;
77133;Laerm;26708;50.304;19.028;2023-12-20T04:28:50;54.24;46.64;71.35;;
77133;Laerm;26708;50.304;19.028;2023-12-20T04:30:54;53.86;47.02;68.32;;
77133;Laerm;26708;50.304;19.028;2023-12-20T04:33:00;50.98;46.49;63.44;;
77133;Laerm;26708;50.304;19.028;2023-12-20T04:35:07;54.50;47.81;68.48;;
77133;Laerm;26708;50.304;19.028;2023-12-20T04:37:18;51.77;47.59;60.34;;
77133;Laerm;26708;50.304;19.028;2023-12-20T04:39:23;53.84;49.14;64.03;;
77133;Laerm;26708;50.304;19.028;2023-12-20T04:41:30;52.44;48.32;57.98;;
77133;Laerm;26708;50.304;19.028;2023-12-20T04:43:34;57.41;48.64;74.83;;
77133;Laerm;26708;50.304;19.028;2023-12-20T04:45:39;58.22;49.01;75.72;;
77133;Laerm;26708;50.304;19.028;2023-12-20T04:47:51;52.63;49.28;61.34;;
77133;Laerm;26708;50.304;19.028;2023-12-20T04:49:55;51.81;47.59;59.49;;
77133;Laerm;26708;50.304;19.028;2023-12-20T04:52:00;53.06;47.17;66.19;;
77133;Laerm;26708;50.304;19.028;2023-12-20T04:54:28;55.64;48.66;71.76;;
77133;Laerm;26708;50.304;19.028;2023-12-20T04:56:33;51.36;48.18;59.30;;
77133;Laerm;26708;50.304;19.028;2023-12-20T04:58:35;53.64;48.16;67.91;;
77133;Laerm;26708;50.304;19.028;2023-12-20T05:00:41;57.87;48.40;68.74;;
77133;Laerm;26708;50.304;19.028;2023-12-20T05:02:47;55.98;48.99;71.37;;
77133;Laerm;26708;50.304;19.028;2023-12-20T05:04:51;54.15;49.23;64.74;;
77133;Laerm;26708;50.304;19.028;2023-12-20T05:07:00;56.94;49.20;71.92;;
77133;Laerm;26708;50.304;19.028;2023-12-20T05:09:06;57.95;49.32;70.19;;
77133;Laerm;26708;50.304;19.028;2023-12-20T05:11:13;58.87;49.16;74.77;;
77133;Laerm;26708;50.304;19.028;2023-12-20T05:13:21;56.91;48.42;68.90;;
77133;Laerm;26708;50.304;19.028;2023-12-20T05:15:34;56.60;48.77;70.57;;
77133;Laerm;26708;50.304;19.028;2023-12-20T05:17:43;57.25;48.16;73.91;;
77133;Laerm;26708;50.304;19.028;2023-12-20T05:19:49;52.50;46.31;73.90;;
77133;Laerm;26708;50.304;19.028;2023-12-20T05:21:51;56.89;46.87;70.72;;
77133;Laerm;26708;50.304;19.028;2023-12-20T05:23:56;57.19;48.51;72.77;;
77133;Laerm;26708;50.304;19.028;2023-12-20T05:26:02;57.42;48.72;69.87;;
77133;Laerm;26708;50.304;19.028;2023-12-20T05:28:09;59.82;49.95;75.44;;
77133;Laerm;26708;50.304;19.028;2023-12-20T05:30:14;57.99;49.37;67.93;;
77133;Laerm;26708;50.304;19.028;2023-12-20T05:32:20;58.95;48.69;69.40;;
77133;Laerm;26708;50.304;19.028;2023-12-20T05:34:24;59.76;47.73;71.23;;
77133;Laerm;26708;50.304;19.028;2023-12-20T05:36:29;55.68;48.22;70.96;;
77133;Laerm;26708;50.304;19.028;2023-12-20T05:38:34;57.92;47.93;69.08;;
77133;Laerm;26708;50.304;19.028;2023-12-20T05:40:36;58.37;49.55;69.27;;
77133;Laerm;26708;50.304;19.028;2023-12-20T05:42:41;57.88;49.13;69.11;;
77133;Laerm;26708;50.304;19.028;2023-12-20T05:44:49;55.45;49.58;68.98;;
77133;Laerm;26708;50.304;19.028;2023-12-20T05:46:56;60.68;50.19;71.41;;
77133;Laerm;26708;50.304;19.028;2023-12-20T05:49:00;58.72;49.94;71.92;;
77133;Laerm;26708;50.304;19.028;2023-12-20T05:51:05;61.19;49.01;71.04;;
77133;Laerm;26708;50.304;19.028;2023-12-20T05:53:10;54.54;48.88;66.83;;
77133;Laerm;26708;50.304;19.028;2023-12-20T05:55:17;58.94;48.51;70.87;;
77133;Laerm;26708;50.304;19.028;2023-12-20T05:57:30;58.83;49.87;71.51;;
77133;Laerm;26708;50.304;19.028;2023-12-20T05:59:34;56.85;48.41;67.89;;
77133;Laerm;26708;50.304;19.028;2023-12-20T06:01:42;60.33;48.32;80.90;;
77133;Laerm;26708;50.304;19.028;2023-12-20T06:03:47;55.09;47.91;69.90;;
77133;Laerm;26708;50.304;19.028;2023-12-20T06:05:52;60.72;49.05;71.01;;
77133;Laerm;26708;50.304;19.028;2023-12-20T06:07:58;58.80;49.18;70.00;;
77133;Laerm;26708;50.304;19.028;2023-12-20T06:10:06;59.17;48.28;71.59;;
77133;Laerm;26708;50.304;19.028;2023-12-20T06:12:08;58.42;48.91;70.13;;
77133;Laerm;26708;50.304;19.028;2023-12-20T06:14:13;60.70;50.01;77.49;;
77133;Laerm;26708;50.304;19.028;2023-12-20T06:16:18;59.37;50.14;72.25;;
77133;Laerm;26708;50.304;19.028;2023-12-20T06:18:34;64.30;50.06;80.48;;
77133;Laerm;26708;50.304;19.028;2023-12-20T06:20:39;62.04;49.56;73.96;;
77133;Laerm;26708;50.304;19.028;2023-12-20T06:22:54;61.90;49.43;74.21;;
77133;Laerm;26708;50.304;19.028;2023-12-20T06:24:59;58.27;49.32;70.95;;
77133;Laerm;26708;50.304;19.028;2023-12-20T06:27:07;58.99;49.71;70.95;;
77133;Laerm;26708;50.304;19.028;2023-12-20T06:29:43;58.73;48.21;71.43;;
77133;Laerm;26708;50.304;19.028;2023-12-20T06:31:49;62.63;50.86;75.37;;
77133;Laerm;26708;50.304;19.028;2023-12-20T06:34:03;57.86;49.38;67.82;;
77133;Laerm;26708;50.304;19.028;2023-12-20T06:36:12;57.40;49.08;71.03;;
77133;Laerm;26708;50.304;19.028;2023-12-20T06:38:19;59.75;50.07;73.90;;
77133;Laerm;26708;50.304;19.028;2023-12-20T06:40:26;63.19;50.96;82.85;;
77133;Laerm;26708;50.304;19.028;2023-12-20T06:42:32;58.09;50.12;74.82;;
77133;Laerm;26708;50.304;19.028;2023-12-20T06:44:37;60.80;51.01;74.66;;
77133;Laerm;26708;50.304;19.028;2023-12-20T06:46:44;59.82;50.64;70.51;;
77133;Laerm;26708;50.304;19.028;2023-12-20T06:48:50;61.49;50.54;72.65;;
77133;Laerm;26708;50.304;19.028;2023-12-20T06:50:59;60.06;50.12;70.32;;
77133;Laerm;26708;50.304;19.028;2023-12-20T06:53:07;61.62;50.74;74.37;;
77133;Laerm;26708;50.304;19.028;2023-12-20T06:55:13;61.01;50.69;71.70;;
77133;Laerm;26708;50.304;19.028;2023-12-20T06:57:20;61.68;50.24;71.54;;
77133;Laerm;26708;50.304;19.028;2023-12-20T06:59:22;61.87;51.20;73.93;;
77133;Laerm;26708;50.304;19.028;2023-12-20T07:01:29;61.73;50.14;71.84;;
77133;Laerm;26708;50.304;19.028;2023-12-20T07:03:36;59.78;49.60;74.68;;
77133;Laerm;26708;50.304;19.028;2023-12-20T07:05:40;61.77;49.00;76.78;;
77133;Laerm;26708;50.304;19.028;2023-12-20T07:07:49;61.88;49.95;72.16;;
77133;Laerm;26708;50.304;19.028;2023-12-20T07:09:53;56.99;50.38;67.66;;
77133;Laerm;26708;50.304;19.028;2023-12-20T07:11:58;61.89;49.90;73.10;;
77133;Laerm;26708;50.304;19.028;2023-12-20T07:14:05;56.59;50.48;70.59;;
77133;Laerm;26708;50.304;19.028;2023-12-20T07:16:11;62.58;50.38;71.86;;
77133;Laerm;26708;50.304;19.028;2023-12-20T07:18:16;61.83;49.68;71.04;;
77133;Laerm;26708;50.304;19.028;2023-12-20T07:20:21;58.79;49.34;69.44;;
77133;Laerm;26708;50.304;19.028;2023-12-20T07:22:24;57.23;49.43;70.65;;
77133;Laerm;26708;50.304;19.028;2023-12-20T07:24:33;60.32;49.20;75.25;;
77133;Laerm;26708;50.304;19.028;2023-12-20T07:26:39;61.80;49.11;73.99;;
77133;Laerm;26708;50.304;19.028;2023-12-20T07:28:43;59.62;49.65;68.91;;
77133;Laerm;26708;50.304;19.028;2023-12-20T07:30:48;59.89;48.60;73.16;;
77133;Laerm;26708;50.304;19.028;2023-12-20T07:32:56;61.36;48.75;74.84;;
77133;Laerm;26708;50.304;19.028;2023-12-20T07:35:02;59.93;48.76;72.92;;
77133;Laerm;26708;50.304;19.028;2023-12-20T07:37:04;59.67;48.72;74.07;;
77133;Laerm;26708;50.304;19.028;2023-12-20T07:39:12;60.70;49.73;74.80;;
77133;Laerm;26708;50.304;19.028;2023-12-20T07:41:19;56.19;48.98;67.56;;
77133;Laerm;26708;50.304;19.028;2023-12-20T07:43:25;60.09;49.14;73.70;;
77133;Laerm;26708;50.304;19.028;2023-12-20T07:45:30;61.31;49.32;75.93;;
77133;Laerm;26708;50.304;19.028;2023-12-20T07:47:32;58.25;49.73;71.86;;
77133;Laerm;26708;50.304;19.028;2023-12-20T07:49:37;60.97;48.98;75.44;;
77133;Laerm;26708;50.304;19.028;2023-12-20T07:51:43;61.58;49.73;74.89;;
77133;Laerm;26708;50.304;19.028;2023-12-20T07:53:47;57.50;48.49;68.70;;
77133;Laerm;26708;50.304;19.028;2023-12-20T07:55:49;58.76;48.95;70.84;;
77133;Laerm;26708;50.304;19.028;2023-12-20T07:57:57;59.34;48.24;71.00;;
77133;Laerm;26708;50.304;19.028;2023-12-20T08:00:03;62.67;47.84;73.57;;
77133;Laerm;26708;50.304;19.028;2023-12-20T08:02:09;61.92;48.18;74.26;;
77133;Laerm;26708;50.304;19.028;2023-12-20T08:04:14;59.17;49.10;71.63;;
77133;Laerm;26708;50.304;19.028;2023-12-20T08:06:23;55.71;48.45;71.62;;
77133;Laerm;26708;50.304;19.028;2023-12-20T08:08:41;60.50;48.45;73.56;;
77133;Laerm;26708;50.304;19.028;2023-12-20T08:10:46;57.57;48.14;69.62;;
77133;Laerm;26708;50.304;19.028;2023-12-20T08:12:51;63.41;50.00;73.29;;
77133;Laerm;26708;50.304;19.028;2023-12-20T08:14:58;58.41;49.03;71.19;;
77133;Laerm;26708;50.304;19.028;2023-12-20T08:17:04;58.97;48.72;70.88;;
77133;Laerm;26708;50.304;19.028;2023-12-20T08:19:09;63.27;49.48;73.18;;
77133;Laerm;26708;50.304;19.028;2023-12-20T08:21:14;60.71;48.70;72.33;;
77133;Laerm;26708;50.304;19.028;2023-12-20T08:23:22;63.50;49.09;76.91;;
77133;Laerm;26708;50.304;19.028;2023-12-20T08:25:26;59.49;49.25;71.65;;
77133;Laerm;26708;50.304;19.028;2023-12-20T08:27:31;59.58;49.12;70.86;;
77133;Laerm;26708;50.304;19.028;2023-12-20T08:32:30;61.99;47.86;74.34;;
77133;Laerm;26708;50.304;19.028;2023-12-20T08:34:36;59.01;47.78;68.68;;
77133;Laerm;26708;50.304;19.028;2023-12-20T08:36:42;60.78;48.52;72.19;;
77133;Laerm;26708;50.304;19.028;2023-12-20T08:38:48;59.38;48.37;72.35;;
77133;Laerm;26708;50.304;19.028;2023-12-20T08:41:06;61.71;47.90;75.99;;
77133;Laerm;26708;50.304;19.028;2023-12-20T08:43:11;59.81;48.39;76.62;;
77133;Laerm;26708;50.304;19.028;2023-12-20T08:45:16;58.83;48.40;68.43;;
77133;Laerm;26708;50.304;19.028;2023-12-20T08:47:18;58.29;48.57;69.96;;
77133;Laerm;26708;50.304;19.028;2023-12-20T08:49:26;60.75;48.80;74.65;;
77133;Laerm;26708;50.304;19.028;2023-12-20T08:51:31;61.67;49.18;74.24;;
77133;Laerm;26708;50.304;19.028;2023-12-20T08:53:33;59.94;48.31;72.59;;
77133;Laerm;26708;50.304;19.028;2023-12-20T08:55:38;59.44;47.77;70.70;;
77133;Laerm;26708;50.304;19.028;2023-12-20T08:57:43;59.18;47.83;71.21;;
77133;Laerm;26708;50.304;19.028;2023-12-20T08:59:47;58.14;48.16;73.06;;
77133;Laerm;26708;50.304;19.028;2023-12-20T09:01:53;59.35;47.82;71.07;;
77133;Laerm;26708;50.304;19.028;2023-12-20T09:03:58;61.10;48.42;72.21;;
77133;Laerm;26708;50.304;19.028;2023-12-20T09:06:06;58.47;47.97;81.40;;
77133;Laerm;26708;50.304;19.028;2023-12-20T09:08:14;61.19;49.03;71.96;;
77133;Laerm;26708;50.304;19.028;2023-12-20T09:10:17;62.13;48.39;73.90;;
77133;Laerm;26708;50.304;19.028;2023-12-20T09:12:26;57.88;47.97;70.39;;
77133;Laerm;26708;50.304;19.028;2023-12-20T09:14:30;60.83;47.72;76.08;;
77133;Laerm;26708;50.304;19.028;2023-12-20T09:16:41;58.50;47.83;70.53;;
77133;Laerm;26708;50.304;19.028;2023-12-20T09:18:45;59.64;47.57;71.35;;
77133;Laerm;26708;50.304;19.028;2023-12-20T09:20:56;59.98;48.12;72.39;;
77133;Laerm;26708;50.304;19.028;2023-12-20T09:23:03;56.23;46.96;70.90;;
77133;Laerm;26708;50.304;19.028;2023-12-20T09:25:10;64.34;47.37;83.00;;
77133;Laerm;26708;50.304;19.028;2023-12-20T09:27:20;58.76;48.10;71.05;;
77133;Laerm;26708;50.304;19.028;2023-12-20T09:29:26;59.98;48.89;71.13;;
77133;Laerm;26708;50.304;19.028;2023-12-20T09:31:32;62.37;49.41;73.42;;
77133;Laerm;26708;50.304;19.028;2023-12-20T09:33:39;60.20;47.39;74.19;;
77133;Laerm;26708;50.304;19.028;2023-12-20T09:35:45;57.85;48.65;69.77;;
77133;Laerm;26708;50.304;19.028;2023-12-20T09:37:52;62.14;48.25;73.68;;
77133;Laerm;26708;50.304;19.028;2023-12-20T09:40:11;56.18;48.19;67.45;;
77133;Laerm;26708;50.304;19.028;2023-12-20T09:42:29;66.99;49.43;87.15;;
77133;Laerm;26708;50.304;19.028;2023-12-20T09:44:38;59.49;47.43;72.36;;
77133;Laerm;26708;50.304;19.028;2023-12-20T09:46:50;61.57;48.46;73.77;;
77133;Laerm;26708;50.304;19.028;2023-12-20T09:49:00;58.53;46.63;69.76;;
77133;Laerm;26708;50.304;19.028;2023-12-20T09:51:06;61.19;48.54;70.96;;
77133;Laerm;26708;50.304;19.028;2023-12-20T09:53:18;59.65;48.36;70.27;;
77133;Laerm;26708;50.304;19.028;2023-12-20T09:55:32;62.81;47.68;77.88;;
77133;Laerm;26708;50.304;19.028;2023-12-20T09:57:37;61.40;48.35;72.00;;
77133;Laerm;26708;50.304;19.028;2023-12-20T09:59:55;62.76;50.27;74.42;;
77133;Laerm;26708;50.304;19.028;2023-12-20T10:02:06;62.01;48.28;75.66;;
77133;Laerm;26708;50.304;19.028;2023-12-20T10:04:17;61.62;48.82;72.77;;
77133;Laerm;26708;50.304;19.028;2023-12-20T10:06:24;62.71;49.36;73.13;;
77133;Laerm;26708;50.304;19.028;2023-12-20T10:08:29;61.03;48.43;72.00;;
77133;Laerm;26708;50.304;19.028;2023-12-20T10:10:39;60.84;49.20;71.12;;
77133;Laerm;26708;50.304;19.028;2023-12-20T10:13:03;62.40;48.23;73.62;;
77133;Laerm;26708;50.304;19.028;2023-12-20T10:15:11;62.05;48.10;73.06;;
77133;Laerm;26708;50.304;19.028;2023-12-20T10:17:21;61.99;48.67;72.13;;
77133;Laerm;26708;50.304;19.028;2023-12-20T10:19:39;59.28;48.21;72.53;;
77133;Laerm;26708;50.304;19.028;2023-12-20T10:21:47;60.53;48.00;71.30;;
77133;Laerm;26708;50.304;19.028;2023-12-20T10:23:52;61.92;48.83;71.29;;
77133;Laerm;26708;50.304;19.028;2023-12-20T10:26:02;60.44;47.99;71.72;;
77133;Laerm;26708;50.304;19.028;2023-12-20T10:28:15;60.24;47.90;72.32;;
77133;Laerm;26708;50.304;19.028;2023-12-20T10:30:24;60.77;48.75;71.83;;
77133;Laerm;26708;50.304;19.028;2023-12-20T10:32:31;59.95;46.96;70.60;;
77133;Laerm;26708;50.304;19.028;2023-12-20T10:34:38;59.10;47.98;69.32;;
77133;Laerm;26708;50.304;19.028;2023-12-20T10:36:42;60.18;47.83;70.01;;
77133;Laerm;26708;50.304;19.028;2023-12-20T10:38:53;59.13;47.93;68.44;;
77133;Laerm;26708;50.304;19.028;2023-12-20T10:41:09;62.04;48.60;70.78;;
77133;Laerm;26708;50.304;19.028;2023-12-20T10:43:22;57.69;48.90;70.90;;
77133;Laerm;26708;50.304;19.028;2023-12-20T10:45:36;62.10;48.10;75.15;;
77133;Laerm;26708;50.304;19.028;2023-12-20T10:47:44;62.86;48.47;72.62;;
77133;Laerm;26708;50.304;19.028;2023-12-20T10:49:54;60.77;48.73;70.88;;
77133;Laerm;26708;50.304;19.028;2023-12-20T10:52:05;62.62;49.78;72.75;;
77133;Laerm;26708;50.304;19.028;2023-12-20T10:54:12;59.82;48.01;72.27;;
77133;Laerm;26708;50.304;19.028;2023-12-20T10:56:21;56.26;47.76;71.49;;
77133;Laerm;26708;50.304;19.028;2023-12-20T10:58:42;60.86;48.12;73.89;;
77133;Laerm;26708;50.304;19.028;2023-12-20T11:01:01;62.22;47.61;71.21;;
77133;Laerm;26708;50.304;19.028;2023-12-20T11:03:12;58.81;49.16;71.29;;
77133;Laerm;26708;50.304;19.028;2023-12-20T11:05:38;60.86;48.27;71.92;;
77133;Laerm;26708;50.304;19.028;2023-12-20T11:10:25;61.07;47.96;72.21;;
77133;Laerm;26708;50.304;19.028;2023-12-20T11:12:51;60.21;48.15;71.12;;
77133;Laerm;26708;50.304;19.028;2023-12-20T11:15:17;61.24;47.57;71.95;;
77133;Laerm;26708;50.304;19.028;2023-12-20T11:17:31;59.10;47.60;71.05;;
77133;Laerm;26708;50.304;19.028;2023-12-20T11:20:07;60.19;46.76;71.62;;
77133;Laerm;26708;50.304;19.028;2023-12-20T11:22:17;60.27;48.34;72.19;;
77133;Laerm;26708;50.304;19.028;2023-12-20T11:24:28;66.06;47.11;83.93;;
77133;Laerm;26708;50.304;19.028;2023-12-20T11:26:36;59.26;47.34;71.42;;
77133;Laerm;26708;50.304;19.028;2023-12-20T11:28:53;59.08;47.86;72.81;;
77133;Laerm;26708;50.304;19.028;2023-12-20T11:31:06;59.27;47.70;69.39;;
77133;Laerm;26708;50.304;19.028;2023-12-20T11:33:26;61.37;48.31;72.82;;
77133;Laerm;26708;50.304;19.028;2023-12-20T11:35:35;58.48;47.34;70.54;;
77133;Laerm;26708;50.304;19.028;2023-12-20T11:37:58;62.19;47.70;74.95;;
77133;Laerm;26708;50.304;19.028;2023-12-20T11:40:14;60.26;49.82;71.24;;
77133;Laerm;26708;50.304;19.028;2023-12-20T11:42:16;60.85;49.53;71.47;;
77133;Laerm;26708;50.304;19.028;2023-12-20T11:44:31;59.32;49.00;69.36;;
77133;Laerm;26708;50.304;19.028;2023-12-20T11:46:39;81.41;47.53;106.96;;
77133;Laerm;26708;50.304;19.028;2023-12-20T11:48:45;61.04;47.90;73.20;;